sensor_id;sensor_type;location;lat;lon;timestamp;temperature;humidity
6672;DHT22;3372;48.690;12.362;2023-12-20T00:01:47;5.30;99.90
6672;DHT22;3372;48.690;12.362;2023-12-20T00:04:12;5.30;99.90
6672;DHT22;3372;48.690;12.362;2023-12-20T00:06:38;5.30;99.90
6672;DHT22;3372;48.690;12.362;2023-12-20T00:09:05;5.30;99.90
6672;DHT22;3372;48.690;12.362;2023-12-20T00:11:30;5.30;99.90
6672;DHT22;3372;48.690;12.362;2023-12-20T00:13:56;5.30;99.90
6672;DHT22;3372;48.690;12.362;2023-12-20T00:16:21;5.40;99.90
6672;DHT22;3372;48.690;12.362;2023-12-20T00:18:47;5.40;99.90
6672;DHT22;3372;48.690;12.362;2023-12-20T00:21:13;5.40;99.90
6672;DHT22;3372;48.690;12.362;2023-12-20T00:23:38;5.40;99.90
6672;DHT22;3372;48.690;12.362;2023-12-20T00:26:04;5.40;99.90
6672;DHT22;3372;48.690;12.362;2023-12-20T00:28:30;5.40;99.90
6672;DHT22;3372;48.690;12.362;2023-12-20T00:30:56;5.40;99.90
6672;DHT22;3372;48.690;12.362;2023-12-20T00:33:22;5.40;99.90
6672;DHT22;3372;48.690;12.362;2023-12-20T00:35:47;5.50;99.90
6672;DHT22;3372;48.690;12.362;2023-12-20T00:38:13;5.50;99.90
6672;DHT22;3372;48.690;12.362;2023-12-20T00:40:38;5.50;99.90
6672;DHT22;3372;48.690;12.362;2023-12-20T00:43:04;5.50;99.90
6672;DHT22;3372;48.690;12.362;2023-12-20T00:45:30;5.60;99.90
6672;DHT22;3372;48.690;12.362;2023-12-20T00:47:55;5.60;99.90
6672;DHT22;3372;48.690;12.362;2023-12-20T00:50:21;5.60;99.90
6672;DHT22;3372;48.690;12.362;2023-12-20T00:52:47;5.70;99.90
6672;DHT22;3372;48.690;12.362;2023-12-20T00:55:14;5.60;99.90
6672;DHT22;3372;48.690;12.362;2023-12-20T00:57:40;5.60;99.90
6672;DHT22;3372;48.690;12.362;2023-12-20T01:00:06;5.60;99.90
6672;DHT22;3372;48.690;12.362;2023-12-20T01:02:32;5.80;99.90
6672;DHT22;3372;48.690;12.362;2023-12-20T01:04:57;5.50;99.90
6672;DHT22;3372;48.690;12.362;2023-12-20T01:07:23;5.70;99.90
6672;DHT22;3372;48.690;12.362;2023-12-20T01:09:48;5.80;99.90
6672;DHT22;3372;48.690;12.362;2023-12-20T01:12:14;5.60;99.90
6672;DHT22;3372;48.690;12.362;2023-12-20T01:14:40;5.70;99.90
6672;DHT22;3372;48.690;12.362;2023-12-20T01:17:05;5.80;99.90
6672;DHT22;3372;48.690;12.362;2023-12-20T01:19:31;5.80;99.90
6672;DHT22;3372;48.690;12.362;2023-12-20T01:21:57;6.00;99.90
6672;DHT22;3372;48.690;12.362;2023-12-20T01:24:22;5.80;99.90
6672;DHT22;3372;48.690;12.362;2023-12-20T01:26:48;5.60;99.90
6672;DHT22;3372;48.690;12.362;2023-12-20T01:29:13;5.90;99.90
6672;DHT22;3372;48.690;12.362;2023-12-20T01:31:40;5.70;99.90
6672;DHT22;3372;48.690;12.362;2023-12-20T01:34:06;5.90;99.90
6672;DHT22;3372;48.690;12.362;2023-12-20T01:36:31;5.90;99.90
6672;DHT22;3372;48.690;12.362;2023-12-20T01:38:57;6.10;99.90
6672;DHT22;3372;48.690;12.362;2023-12-20T01:41:23;6.00;99.90
6672;DHT22;3372;48.690;12.362;2023-12-20T01:43:49;6.00;99.90
6672;DHT22;3372;48.690;12.362;2023-12-20T01:46:15;6.20;99.90
6672;DHT22;3372;48.690;12.362;2023-12-20T01:48:41;6.00;99.90
6672;DHT22;3372;48.690;12.362;2023-12-20T01:51:06;6.00;99.90
6672;DHT22;3372;48.690;12.362;2023-12-20T01:53:32;5.90;99.90
6672;DHT22;3372;48.690;12.362;2023-12-20T01:55:58;6.10;99.90
6672;DHT22;3372;48.690;12.362;2023-12-20T01:58:24;6.20;99.90
6672;DHT22;3372;48.690;12.362;2023-12-20T02:00:51;6.10;99.90
6672;DHT22;3372;48.690;12.362;2023-12-20T02:03:17;6.10;99.90
6672;DHT22;3372;48.690;12.362;2023-12-20T02:05:44;6.30;99.90
6672;DHT22;3372;48.690;12.362;2023-12-20T02:08:11;6.10;99.90
6672;DHT22;3372;48.690;12.362;2023-12-20T02:10:40;6.30;99.90
6672;DHT22;3372;48.690;12.362;2023-12-20T02:13:06;6.30;99.90
6672;DHT22;3372;48.690;12.362;2023-12-20T02:15:31;6.30;99.90
6672;DHT22;3372;48.690;12.362;2023-12-20T02:17:57;6.30;99.90
6672;DHT22;3372;48.690;12.362;2023-12-20T02:20:22;6.10;99.90
6672;DHT22;3372;48.690;12.362;2023-12-20T02:22:48;6.20;99.90
6672;DHT22;3372;48.690;12.362;2023-12-20T02:25:14;6.10;99.90
6672;DHT22;3372;48.690;12.362;2023-12-20T02:27:39;6.10;99.90
6672;DHT22;3372;48.690;12.362;2023-12-20T02:30:05;6.20;99.90
6672;DHT22;3372;48.690;12.362;2023-12-20T02:32:31;6.10;99.90
6672;DHT22;3372;48.690;12.362;2023-12-20T02:34:57;6.10;99.90
6672;DHT22;3372;48.690;12.362;2023-12-20T02:37:23;6.30;99.90
6672;DHT22;3372;48.690;12.362;2023-12-20T02:39:48;6.10;99.90
6672;DHT22;3372;48.690;12.362;2023-12-20T02:42:14;6.10;99.90
6672;DHT22;3372;48.690;12.362;2023-12-20T02:44:40;6.00;99.90
6672;DHT22;3372;48.690;12.362;2023-12-20T02:47:05;6.00;99.90
6672;DHT22;3372;48.690;12.362;2023-12-20T02:49:31;6.10;99.90
6672;DHT22;3372;48.690;12.362;2023-12-20T02:51:56;6.10;99.90
6672;DHT22;3372;48.690;12.362;2023-12-20T02:54:22;6.00;99.90
6672;DHT22;3372;48.690;12.362;2023-12-20T02:56:49;6.00;99.90
6672;DHT22;3372;48.690;12.362;2023-12-20T02:59:14;6.20;99.90
6672;DHT22;3372;48.690;12.362;2023-12-20T03:01:46;6.00;99.90
6672;DHT22;3372;48.690;12.362;2023-12-20T03:04:12;6.20;99.90
6672;DHT22;3372;48.690;12.362;2023-12-20T03:06:38;6.00;99.90
6672;DHT22;3372;48.690;12.362;2023-12-20T03:09:03;6.30;99.90
6672;DHT22;3372;48.690;12.362;2023-12-20T03:11:29;6.00;99.90
6672;DHT22;3372;48.690;12.362;2023-12-20T03:13:56;6.00;99.90
6672;DHT22;3372;48.690;12.362;2023-12-20T03:16:21;5.90;99.90
6672;DHT22;3372;48.690;12.362;2023-12-20T03:18:47;5.90;99.90
6672;DHT22;3372;48.690;12.362;2023-12-20T03:21:12;6.00;99.90
6672;DHT22;3372;48.690;12.362;2023-12-20T03:23:38;5.90;99.90
6672;DHT22;3372;48.690;12.362;2023-12-20T03:26:07;5.80;99.90
6672;DHT22;3372;48.690;12.362;2023-12-20T03:28:32;6.10;99.90
6672;DHT22;3372;48.690;12.362;2023-12-20T03:30:58;6.20;99.90
6672;DHT22;3372;48.690;12.362;2023-12-20T03:33:23;6.20;99.90
6672;DHT22;3372;48.690;12.362;2023-12-20T03:35:50;6.00;99.90
6672;DHT22;3372;48.690;12.362;2023-12-20T03:38:15;6.00;99.90
6672;DHT22;3372;48.690;12.362;2023-12-20T03:40:41;6.00;99.90
6672;DHT22;3372;48.690;12.362;2023-12-20T03:43:07;6.40;99.90
6672;DHT22;3372;48.690;12.362;2023-12-20T03:45:32;5.90;99.90
6672;DHT22;3372;48.690;12.362;2023-12-20T03:47:58;5.90;99.90
6672;DHT22;3372;48.690;12.362;2023-12-20T03:50:24;6.00;99.90
6672;DHT22;3372;48.690;12.362;2023-12-20T03:52:49;6.00;99.90
6672;DHT22;3372;48.690;12.362;2023-12-20T03:55:15;6.00;99.90
6672;DHT22;3372;48.690;12.362;2023-12-20T03:57:40;6.20;99.90
6672;DHT22;3372;48.690;12.362;2023-12-20T04:00:07;6.10;99.90
6672;DHT22;3372;48.690;12.362;2023-12-20T04:02:37;6.10;99.90
6672;DHT22;3372;48.690;12.362;2023-12-20T04:05:02;6.20;99.90
6672;DHT22;3372;48.690;12.362;2023-12-20T04:07:28;5.90;99.90
6672;DHT22;3372;48.690;12.362;2023-12-20T04:09:55;6.20;99.90
6672;DHT22;3372;48.690;12.362;2023-12-20T04:12:20;6.00;99.90
6672;DHT22;3372;48.690;12.362;2023-12-20T04:14:46;6.00;99.90
6672;DHT22;3372;48.690;12.362;2023-12-20T04:17:11;6.10;99.90
6672;DHT22;3372;48.690;12.362;2023-12-20T04:19:37;6.30;99.90
6672;DHT22;3372;48.690;12.362;2023-12-20T04:22:03;6.30;99.90
6672;DHT22;3372;48.690;12.362;2023-12-20T04:24:28;6.40;99.90
6672;DHT22;3372;48.690;12.362;2023-12-20T04:26:54;6.30;99.90
6672;DHT22;3372;48.690;12.362;2023-12-20T04:29:19;6.50;99.90
6672;DHT22;3372;48.690;12.362;2023-12-20T04:31:45;6.20;99.90
6672;DHT22;3372;48.690;12.362;2023-12-20T04:34:11;6.40;99.90
6672;DHT22;3372;48.690;12.362;2023-12-20T04:36:36;6.30;99.90
6672;DHT22;3372;48.690;12.362;2023-12-20T04:39:02;6.60;99.90
6672;DHT22;3372;48.690;12.362;2023-12-20T04:41:28;6.50;99.90
6672;DHT22;3372;48.690;12.362;2023-12-20T04:43:54;6.70;99.90
6672;DHT22;3372;48.690;12.362;2023-12-20T04:46:19;6.50;99.90
6672;DHT22;3372;48.690;12.362;2023-12-20T04:48:45;6.40;99.90
6672;DHT22;3372;48.690;12.362;2023-12-20T04:51:10;6.40;99.90
6672;DHT22;3372;48.690;12.362;2023-12-20T04:53:36;6.40;99.90
6672;DHT22;3372;48.690;12.362;2023-12-20T04:56:01;6.30;99.90
6672;DHT22;3372;48.690;12.362;2023-12-20T04:58:27;6.50;99.90
6672;DHT22;3372;48.690;12.362;2023-12-20T05:00:52;6.40;99.90
6672;DHT22;3372;48.690;12.362;2023-12-20T05:03:18;6.30;99.90
6672;DHT22;3372;48.690;12.362;2023-12-20T05:05:43;6.60;99.90
6672;DHT22;3372;48.690;12.362;2023-12-20T05:08:09;6.60;99.90
6672;DHT22;3372;48.690;12.362;2023-12-20T05:10:35;6.20;99.90
6672;DHT22;3372;48.690;12.362;2023-12-20T05:13:01;6.40;99.90
6672;DHT22;3372;48.690;12.362;2023-12-20T05:15:27;6.50;99.90
6672;DHT22;3372;48.690;12.362;2023-12-20T05:17:53;6.50;99.90
6672;DHT22;3372;48.690;12.362;2023-12-20T05:20:19;6.20;99.90
6672;DHT22;3372;48.690;12.362;2023-12-20T05:22:44;6.20;99.90
6672;DHT22;3372;48.690;12.362;2023-12-20T05:25:10;6.20;99.90
6672;DHT22;3372;48.690;12.362;2023-12-20T05:27:36;6.20;99.90
6672;DHT22;3372;48.690;12.362;2023-12-20T05:30:01;6.20;99.90
6672;DHT22;3372;48.690;12.362;2023-12-20T05:32:27;6.10;99.90
6672;DHT22;3372;48.690;12.362;2023-12-20T05:34:53;6.10;99.90
6672;DHT22;3372;48.690;12.362;2023-12-20T05:37:18;6.10;99.90
6672;DHT22;3372;48.690;12.362;2023-12-20T05:39:44;6.00;99.90
6672;DHT22;3372;48.690;12.362;2023-12-20T05:42:09;6.10;99.90
6672;DHT22;3372;48.690;12.362;2023-12-20T05:44:35;6.20;99.90
6672;DHT22;3372;48.690;12.362;2023-12-20T05:47:00;6.10;99.90
6672;DHT22;3372;48.690;12.362;2023-12-20T05:49:26;6.10;99.90
6672;DHT22;3372;48.690;12.362;2023-12-20T05:51:51;6.10;99.90
6672;DHT22;3372;48.690;12.362;2023-12-20T05:54:17;6.10;99.90
6672;DHT22;3372;48.690;12.362;2023-12-20T05:56:43;6.00;99.90
6672;DHT22;3372;48.690;12.362;2023-12-20T05:59:08;6.10;99.90
6672;DHT22;3372;48.690;12.362;2023-12-20T06:01:34;6.10;99.90
6672;DHT22;3372;48.690;12.362;2023-12-20T06:04:00;6.10;99.90
6672;DHT22;3372;48.690;12.362;2023-12-20T06:06:25;6.10;99.90
6672;DHT22;3372;48.690;12.362;2023-12-20T06:08:51;6.10;99.90
6672;DHT22;3372;48.690;12.362;2023-12-20T06:11:17;6.10;99.90
6672;DHT22;3372;48.690;12.362;2023-12-20T06:13:42;6.10;99.90
6672;DHT22;3372;48.690;12.362;2023-12-20T06:16:08;6.20;99.90
6672;DHT22;3372;48.690;12.362;2023-12-20T06:18:33;6.00;99.90
6672;DHT22;3372;48.690;12.362;2023-12-20T06:20:59;6.10;99.90
6672;DHT22;3372;48.690;12.362;2023-12-20T06:23:24;6.10;99.90
6672;DHT22;3372;48.690;12.362;2023-12-20T06:25:50;6.10;99.90
6672;DHT22;3372;48.690;12.362;2023-12-20T06:28:16;6.10;99.90
6672;DHT22;3372;48.690;12.362;2023-12-20T06:30:41;6.20;99.90
6672;DHT22;3372;48.690;12.362;2023-12-20T06:33:07;6.00;99.90
6672;DHT22;3372;48.690;12.362;2023-12-20T06:35:32;6.00;99.90
6672;DHT22;3372;48.690;12.362;2023-12-20T06:37:58;6.10;99.90
6672;DHT22;3372;48.690;12.362;2023-12-20T06:40:24;6.10;99.90
6672;DHT22;3372;48.690;12.362;2023-12-20T06:42:49;6.20;99.90
6672;DHT22;3372;48.690;12.362;2023-12-20T06:45:15;6.20;99.90
6672;DHT22;3372;48.690;12.362;2023-12-20T06:47:40;6.20;99.90
6672;DHT22;3372;48.690;12.362;2023-12-20T06:50:06;6.20;99.90
6672;DHT22;3372;48.690;12.362;2023-12-20T06:52:33;6.10;99.90
6672;DHT22;3372;48.690;12.362;2023-12-20T06:54:59;6.20;99.90
6672;DHT22;3372;48.690;12.362;2023-12-20T06:57:24;6.20;99.90
6672;DHT22;3372;48.690;12.362;2023-12-20T06:59:51;6.20;99.90
6672;DHT22;3372;48.690;12.362;2023-12-20T07:02:17;6.20;99.90
6672;DHT22;3372;48.690;12.362;2023-12-20T07:04:43;6.10;99.90
6672;DHT22;3372;48.690;12.362;2023-12-20T07:07:08;6.20;99.90
6672;DHT22;3372;48.690;12.362;2023-12-20T07:09:34;6.20;99.90
6672;DHT22;3372;48.690;12.362;2023-12-20T07:12:00;6.20;99.90
6672;DHT22;3372;48.690;12.362;2023-12-20T07:14:25;6.20;99.90
6672;DHT22;3372;48.690;12.362;2023-12-20T07:16:51;6.10;99.90
6672;DHT22;3372;48.690;12.362;2023-12-20T07:19:16;6.00;99.90
6672;DHT22;3372;48.690;12.362;2023-12-20T07:21:42;6.10;99.90
6672;DHT22;3372;48.690;12.362;2023-12-20T07:24:07;6.10;99.90
6672;DHT22;3372;48.690;12.362;2023-12-20T07:26:33;6.20;99.90
6672;DHT22;3372;48.690;12.362;2023-12-20T07:28:59;6.20;99.90
6672;DHT22;3372;48.690;12.362;2023-12-20T07:31:25;6.30;99.90
6672;DHT22;3372;48.690;12.362;2023-12-20T07:33:50;6.30;99.90
6672;DHT22;3372;48.690;12.362;2023-12-20T07:36:16;6.30;99.90
6672;DHT22;3372;48.690;12.362;2023-12-20T07:38:41;6.40;99.90
6672;DHT22;3372;48.690;12.362;2023-12-20T07:41:10;6.30;99.90
6672;DHT22;3372;48.690;12.362;2023-12-20T07:43:41;6.30;99.90
6672;DHT22;3372;48.690;12.362;2023-12-20T07:46:08;6.30;99.90
6672;DHT22;3372;48.690;12.362;2023-12-20T07:48:37;6.40;99.90
6672;DHT22;3372;48.690;12.362;2023-12-20T07:51:04;6.40;99.90
6672;DHT22;3372;48.690;12.362;2023-12-20T07:53:29;6.30;99.90
6672;DHT22;3372;48.690;12.362;2023-12-20T07:55:55;6.40;99.90
6672;DHT22;3372;48.690;12.362;2023-12-20T07:58:21;6.40;99.90
6672;DHT22;3372;48.690;12.362;2023-12-20T08:00:47;6.40;99.90
6672;DHT22;3372;48.690;12.362;2023-12-20T08:03:13;6.40;99.90
6672;DHT22;3372;48.690;12.362;2023-12-20T08:05:38;6.40;99.90
6672;DHT22;3372;48.690;12.362;2023-12-20T08:08:07;6.40;99.90
6672;DHT22;3372;48.690;12.362;2023-12-20T08:10:32;6.40;99.90
6672;DHT22;3372;48.690;12.362;2023-12-20T08:12:58;6.40;99.90
6672;DHT22;3372;48.690;12.362;2023-12-20T08:15:23;6.50;99.90
6672;DHT22;3372;48.690;12.362;2023-12-20T08:17:49;6.40;99.90
6672;DHT22;3372;48.690;12.362;2023-12-20T08:20:18;6.40;99.90
6672;DHT22;3372;48.690;12.362;2023-12-20T08:22:44;6.40;99.90
6672;DHT22;3372;48.690;12.362;2023-12-20T08:25:09;6.50;99.90
6672;DHT22;3372;48.690;12.362;2023-12-20T08:27:41;6.30;99.90
6672;DHT22;3372;48.690;12.362;2023-12-20T08:30:08;6.30;99.90
6672;DHT22;3372;48.690;12.362;2023-12-20T08:32:34;6.40;99.90
6672;DHT22;3372;48.690;12.362;2023-12-20T08:35:00;6.30;99.90
6672;DHT22;3372;48.690;12.362;2023-12-20T08:37:25;6.30;99.90
6672;DHT22;3372;48.690;12.362;2023-12-20T08:39:51;6.30;99.90
6672;DHT22;3372;48.690;12.362;2023-12-20T08:42:16;6.40;99.90
6672;DHT22;3372;48.690;12.362;2023-12-20T08:44:42;6.40;99.90
6672;DHT22;3372;48.690;12.362;2023-12-20T08:47:08;6.40;99.90
6672;DHT22;3372;48.690;12.362;2023-12-20T08:49:33;6.30;99.90
6672;DHT22;3372;48.690;12.362;2023-12-20T08:51:59;6.30;99.90
6672;DHT22;3372;48.690;12.362;2023-12-20T08:54:24;6.40;99.90
6672;DHT22;3372;48.690;12.362;2023-12-20T08:56:50;6.40;99.90
6672;DHT22;3372;48.690;12.362;2023-12-20T08:59:15;6.40;99.90
6672;DHT22;3372;48.690;12.362;2023-12-20T09:01:41;6.50;99.90
6672;DHT22;3372;48.690;12.362;2023-12-20T09:04:07;6.50;99.90
6672;DHT22;3372;48.690;12.362;2023-12-20T09:06:32;6.50;99.90
6672;DHT22;3372;48.690;12.362;2023-12-20T09:08:58;6.50;99.90
6672;DHT22;3372;48.690;12.362;2023-12-20T09:11:23;6.50;99.90
6672;DHT22;3372;48.690;12.362;2023-12-20T09:13:49;6.50;99.90
6672;DHT22;3372;48.690;12.362;2023-12-20T09:16:15;6.60;99.90
6672;DHT22;3372;48.690;12.362;2023-12-20T09:18:42;6.60;99.90
6672;DHT22;3372;48.690;12.362;2023-12-20T09:21:07;6.70;99.90
6672;DHT22;3372;48.690;12.362;2023-12-20T09:23:33;6.60;99.90
6672;DHT22;3372;48.690;12.362;2023-12-20T09:25:59;6.60;99.90
6672;DHT22;3372;48.690;12.362;2023-12-20T09:28:24;6.60;99.90
6672;DHT22;3372;48.690;12.362;2023-12-20T09:30:50;6.60;99.90
6672;DHT22;3372;48.690;12.362;2023-12-20T09:33:15;6.60;99.90
6672;DHT22;3372;48.690;12.362;2023-12-20T09:35:42;6.70;99.90
6672;DHT22;3372;48.690;12.362;2023-12-20T09:38:07;6.70;99.90
6672;DHT22;3372;48.690;12.362;2023-12-20T09:40:34;6.70;99.90
6672;DHT22;3372;48.690;12.362;2023-12-20T09:43:04;6.80;99.90
6672;DHT22;3372;48.690;12.362;2023-12-20T09:45:34;6.80;99.90
6672;DHT22;3372;48.690;12.362;2023-12-20T09:47:59;6.70;99.90
6672;DHT22;3372;48.690;12.362;2023-12-20T09:50:26;6.70;99.90
6672;DHT22;3372;48.690;12.362;2023-12-20T09:52:53;6.70;99.90
6672;DHT22;3372;48.690;12.362;2023-12-20T09:55:19;6.70;99.90
6672;DHT22;3372;48.690;12.362;2023-12-20T09:57:46;6.80;99.90
6672;DHT22;3372;48.690;12.362;2023-12-20T10:00:12;6.80;99.90
6672;DHT22;3372;48.690;12.362;2023-12-20T10:02:44;6.90;99.90
6672;DHT22;3372;48.690;12.362;2023-12-20T10:05:16;6.90;99.90
6672;DHT22;3372;48.690;12.362;2023-12-20T10:07:42;6.90;99.90
6672;DHT22;3372;48.690;12.362;2023-12-20T10:10:07;6.90;99.90
6672;DHT22;3372;48.690;12.362;2023-12-20T10:12:34;6.90;99.90
6672;DHT22;3372;48.690;12.362;2023-12-20T10:14:59;7.00;99.90
6672;DHT22;3372;48.690;12.362;2023-12-20T10:17:27;6.90;99.90
6672;DHT22;3372;48.690;12.362;2023-12-20T10:19:54;6.80;99.90
6672;DHT22;3372;48.690;12.362;2023-12-20T10:22:20;6.90;99.90
6672;DHT22;3372;48.690;12.362;2023-12-20T10:24:46;6.90;99.90
6672;DHT22;3372;48.690;12.362;2023-12-20T10:27:12;7.00;99.90
6672;DHT22;3372;48.690;12.362;2023-12-20T10:29:38;7.00;99.90
6672;DHT22;3372;48.690;12.362;2023-12-20T10:32:23;6.90;99.90
6672;DHT22;3372;48.690;12.362;2023-12-20T10:34:50;6.90;99.90
6672;DHT22;3372;48.690;12.362;2023-12-20T10:37:16;6.90;99.90
6672;DHT22;3372;48.690;12.362;2023-12-20T10:39:42;7.00;99.90
6672;DHT22;3372;48.690;12.362;2023-12-20T10:42:11;7.00;99.90
6672;DHT22;3372;48.690;12.362;2023-12-20T10:44:36;7.00;99.90
6672;DHT22;3372;48.690;12.362;2023-12-20T10:47:03;7.00;99.90
6672;DHT22;3372;48.690;12.362;2023-12-20T10:49:30;7.00;99.90
6672;DHT22;3372;48.690;12.362;2023-12-20T10:51:57;7.00;99.90
6672;DHT22;3372;48.690;12.362;2023-12-20T10:54:25;7.10;99.90
6672;DHT22;3372;48.690;12.362;2023-12-20T10:56:52;7.20;99.90
6672;DHT22;3372;48.690;12.362;2023-12-20T10:59:20;7.20;99.90
6672;DHT22;3372;48.690;12.362;2023-12-20T11:01:47;7.30;99.90
6672;DHT22;3372;48.690;12.362;2023-12-20T11:04:18;7.30;99.90
6672;DHT22;3372;48.690;12.362;2023-12-20T11:06:52;7.30;99.90
6672;DHT22;3372;48.690;12.362;2023-12-20T11:09:24;7.40;99.90
6672;DHT22;3372;48.690;12.362;2023-12-20T11:14:41;7.20;99.90
6672;DHT22;3372;48.690;12.362;2023-12-20T11:17:11;7.20;99.90
6672;DHT22;3372;48.690;12.362;2023-12-20T11:22:27;7.30;99.90
6672;DHT22;3372;48.690;12.362;2023-12-20T11:24:59;7.30;99.90
6672;DHT22;3372;48.690;12.362;2023-12-20T11:27:27;7.30;99.90
6672;DHT22;3372;48.690;12.362;2023-12-20T11:29:56;7.30;99.90
6672;DHT22;3372;48.690;12.362;2023-12-20T11:34:57;7.40;99.90
6672;DHT22;3372;48.690;12.362;2023-12-20T11:37:32;7.30;99.90
6672;DHT22;3372;48.690;12.362;2023-12-20T11:40:06;7.40;99.90
6672;DHT22;3372;48.690;12.362;2023-12-20T11:42:39;7.40;99.90
6672;DHT22;3372;48.690;12.362;2023-12-20T11:45:08;7.30;99.90
6672;DHT22;3372;48.690;12.362;2023-12-20T11:47:33;7.20;99.90
6672;DHT22;3372;48.690;12.362;2023-12-20T11:50:00;7.10;99.90
6672;DHT22;3372;48.690;12.362;2023-12-20T11:52:29;7.00;99.90
6672;DHT22;3372;48.690;12.362;2023-12-20T11:54:54;7.00;99.90
6672;DHT22;3372;48.690;12.362;2023-12-20T11:57:20;6.90;99.90
6672;DHT22;3372;48.690;12.362;2023-12-20T11:59:46;7.00;99.90
6672;DHT22;3372;48.690;12.362;2023-12-20T12:02:12;7.00;99.90
6672;DHT22;3372;48.690;12.362;2023-12-20T12:04:37;6.90;99.90
6672;DHT22;3372;48.690;12.362;2023-12-20T12:07:04;6.80;99.90
6672;DHT22;3372;48.690;12.362;2023-12-20T12:09:29;6.80;99.90
6672;DHT22;3372;48.690;12.362;2023-12-20T12:11:55;6.80;99.90
6672;DHT22;3372;48.690;12.362;2023-12-20T12:14:21;6.80;99.90
6672;DHT22;3372;48.690;12.362;2023-12-20T12:16:47;6.70;99.90
6672;DHT22;3372;48.690;12.362;2023-12-20T12:19:23;6.80;99.90
6672;DHT22;3372;48.690;12.362;2023-12-20T12:22:05;6.90;99.90
6672;DHT22;3372;48.690;12.362;2023-12-20T12:24:36;6.90;99.90
6672;DHT22;3372;48.690;12.362;2023-12-20T12:27:03;6.90;99.90
6672;DHT22;3372;48.690;12.362;2023-12-20T12:29:29;7.00;99.90
6672;DHT22;3372;48.690;12.362;2023-12-20T12:31:54;7.00;99.90
6672;DHT22;3372;48.690;12.362;2023-12-20T12:34:20;7.10;99.90
6672;DHT22;3372;48.690;12.362;2023-12-20T12:36:46;7.00;99.90
6672;DHT22;3372;48.690;12.362;2023-12-20T12:39:18;7.10;99.90
6672;DHT22;3372;48.690;12.362;2023-12-20T12:41:44;7.10;99.90
6672;DHT22;3372;48.690;12.362;2023-12-20T12:44:09;7.10;99.90
6672;DHT22;3372;48.690;12.362;2023-12-20T12:46:35;7.10;99.90
6672;DHT22;3372;48.690;12.362;2023-12-20T12:49:00;7.10;99.90
6672;DHT22;3372;48.690;12.362;2023-12-20T12:51:26;7.10;99.90
6672;DHT22;3372;48.690;12.362;2023-12-20T12:53:51;7.20;99.90
6672;DHT22;3372;48.690;12.362;2023-12-20T12:56:17;7.10;99.90
6672;DHT22;3372;48.690;12.362;2023-12-20T12:58:42;7.10;99.90
6672;DHT22;3372;48.690;12.362;2023-12-20T13:01:08;7.10;99.90
6672;DHT22;3372;48.690;12.362;2023-12-20T13:03:35;7.10;99.90
6672;DHT22;3372;48.690;12.362;2023-12-20T13:06:01;7.10;99.90
6672;DHT22;3372;48.690;12.362;2023-12-20T13:08:28;7.20;99.90
6672;DHT22;3372;48.690;12.362;2023-12-20T13:10:55;7.30;99.90
6672;DHT22;3372;48.690;12.362;2023-12-20T13:13:21;7.30;99.90
6672;DHT22;3372;48.690;12.362;2023-12-20T13:15:46;7.20;99.90
6672;DHT22;3372;48.690;12.362;2023-12-20T13:18:17;7.10;99.90
6672;DHT22;3372;48.690;12.362;2023-12-20T13:20:44;7.10;99.90
6672;DHT22;3372;48.690;12.362;2023-12-20T13:23:09;7.10;99.90
6672;DHT22;3372;48.690;12.362;2023-12-20T13:25:35;7.10;99.90
6672;DHT22;3372;48.690;12.362;2023-12-20T13:28:00;7.10;99.90
6672;DHT22;3372;48.690;12.362;2023-12-20T13:30:26;7.10;99.90
6672;DHT22;3372;48.690;12.362;2023-12-20T13:32:52;7.20;99.90
6672;DHT22;3372;48.690;12.362;2023-12-20T13:35:18;7.30;99.90
6672;DHT22;3372;48.690;12.362;2023-12-20T13:37:43;7.20;99.90
6672;DHT22;3372;48.690;12.362;2023-12-20T13:40:10;7.30;99.90
6672;DHT22;3372;48.690;12.362;2023-12-20T13:42:35;7.30;99.90
6672;DHT22;3372;48.690;12.362;2023-12-20T13:45:01;7.20;99.90
6672;DHT22;3372;48.690;12.362;2023-12-20T13:47:27;7.20;99.90
6672;DHT22;3372;48.690;12.362;2023-12-20T13:49:52;7.20;99.90
6672;DHT22;3372;48.690;12.362;2023-12-20T13:52:18;7.20;99.90
6672;DHT22;3372;48.690;12.362;2023-12-20T13:54:44;7.20;99.90
6672;DHT22;3372;48.690;12.362;2023-12-20T13:57:09;7.10;99.90
6672;DHT22;3372;48.690;12.362;2023-12-20T13:59:35;7.10;99.90
6672;DHT22;3372;48.690;12.362;2023-12-20T14:02:00;7.10;99.90
6672;DHT22;3372;48.690;12.362;2023-12-20T14:04:28;7.10;99.90
6672;DHT22;3372;48.690;12.362;2023-12-20T14:06:54;7.10;99.90
6672;DHT22;3372;48.690;12.362;2023-12-20T14:09:19;7.00;99.90
6672;DHT22;3372;48.690;12.362;2023-12-20T14:11:45;7.00;99.90
6672;DHT22;3372;48.690;12.362;2023-12-20T14:14:11;7.00;99.90
6672;DHT22;3372;48.690;12.362;2023-12-20T14:16:36;7.00;99.90
6672;DHT22;3372;48.690;12.362;2023-12-20T14:19:03;7.00;99.90
6672;DHT22;3372;48.690;12.362;2023-12-20T14:21:29;6.90;99.90
6672;DHT22;3372;48.690;12.362;2023-12-20T14:23:54;6.90;99.90
6672;DHT22;3372;48.690;12.362;2023-12-20T14:26:20;6.70;99.90
6672;DHT22;3372;48.690;12.362;2023-12-20T14:28:45;6.70;99.90
6672;DHT22;3372;48.690;12.362;2023-12-20T14:31:11;6.70;99.90
6672;DHT22;3372;48.690;12.362;2023-12-20T14:33:37;6.80;99.90
6672;DHT22;3372;48.690;12.362;2023-12-20T14:36:05;6.80;99.90
6672;DHT22;3372;48.690;12.362;2023-12-20T14:38:34;6.70;99.90
6672;DHT22;3372;48.690;12.362;2023-12-20T14:40:59;6.70;99.90
6672;DHT22;3372;48.690;12.362;2023-12-20T14:43:26;6.70;99.90
6672;DHT22;3372;48.690;12.362;2023-12-20T14:45:54;6.60;99.90
6672;DHT22;3372;48.690;12.362;2023-12-20T14:48:20;6.70;99.90
6672;DHT22;3372;48.690;12.362;2023-12-20T14:50:46;6.70;99.90
6672;DHT22;3372;48.690;12.362;2023-12-20T14:53:14;6.70;99.90
6672;DHT22;3372;48.690;12.362;2023-12-20T14:55:40;6.60;99.90
6672;DHT22;3372;48.690;12.362;2023-12-20T14:58:06;6.60;99.90
6672;DHT22;3372;48.690;12.362;2023-12-20T15:00:31;6.70;99.90
6672;DHT22;3372;48.690;12.362;2023-12-20T15:02:57;6.60;99.90
6672;DHT22;3372;48.690;12.362;2023-12-20T15:05:22;6.60;99.90
6672;DHT22;3372;48.690;12.362;2023-12-20T15:07:48;6.60;99.90
6672;DHT22;3372;48.690;12.362;2023-12-20T15:10:14;6.60;99.90
6672;DHT22;3372;48.690;12.362;2023-12-20T15:12:39;6.60;99.90
6672;DHT22;3372;48.690;12.362;2023-12-20T15:15:05;6.60;99.90
6672;DHT22;3372;48.690;12.362;2023-12-20T15:17:31;6.60;99.90
6672;DHT22;3372;48.690;12.362;2023-12-20T15:19:57;6.60;99.90
6672;DHT22;3372;48.690;12.362;2023-12-20T15:22:22;6.60;99.90
6672;DHT22;3372;48.690;12.362;2023-12-20T15:24:49;6.60;99.90
6672;DHT22;3372;48.690;12.362;2023-12-20T15:27:16;6.50;99.90
6672;DHT22;3372;48.690;12.362;2023-12-20T15:29:43;6.50;99.90
6672;DHT22;3372;48.690;12.362;2023-12-20T15:32:08;6.50;99.90
6672;DHT22;3372;48.690;12.362;2023-12-20T15:34:34;6.50;99.90
6672;DHT22;3372;48.690;12.362;2023-12-20T15:36:59;6.40;99.90
6672;DHT22;3372;48.690;12.362;2023-12-20T15:39:25;6.40;99.90
6672;DHT22;3372;48.690;12.362;2023-12-20T15:41:51;6.40;99.90
6672;DHT22;3372;48.690;12.362;2023-12-20T15:44:17;6.40;99.60
6672;DHT22;3372;48.690;12.362;2023-12-20T15:46:43;6.30;96.80
6672;DHT22;3372;48.690;12.362;2023-12-20T15:49:08;6.30;97.10
6672;DHT22;3372;48.690;12.362;2023-12-20T15:51:36;6.20;96.50
6672;DHT22;3372;48.690;12.362;2023-12-20T15:54:02;6.30;95.80
6672;DHT22;3372;48.690;12.362;2023-12-20T15:56:32;6.20;96.40
6672;DHT22;3372;48.690;12.362;2023-12-20T15:58:57;6.30;95.80
6672;DHT22;3372;48.690;12.362;2023-12-20T16:01:24;6.30;93.70
6672;DHT22;3372;48.690;12.362;2023-12-20T16:03:49;6.20;92.60